sensor_id;sensor_type;location;lat;lon;timestamp;P1;durP1;ratioP1;P2;durP2;ratioP2
41480;SDS011;27217;51.220;5.308;2023-08-20T00:00:57;15.15;;;6.25;;
41480;SDS011;27217;51.220;5.308;2023-08-20T00:03:25;15.50;;;5.28;;
41480;SDS011;27217;51.220;5.308;2023-08-20T00:05:51;16.27;;;5.68;;
41480;SDS011;27217;51.220;5.308;2023-08-20T00:08:18;19.00;;;7.15;;
41480;SDS011;27217;51.220;5.308;2023-08-20T00:10:44;21.05;;;7.15;;
41480;SDS011;27217;51.220;5.308;2023-08-20T00:13:10;18.42;;;7.80;;
41480;SDS011;27217;51.220;5.308;2023-08-20T00:15:36;21.05;;;8.02;;
41480;SDS011;27217;51.220;5.308;2023-08-20T00:18:02;17.40;;;7.45;;
41480;SDS011;27217;51.220;5.308;2023-08-20T00:20:29;17.15;;;8.32;;
41480;SDS011;27217;51.220;5.308;2023-08-20T00:22:55;17.10;;;7.28;;
41480;SDS011;27217;51.220;5.308;2023-08-20T00:25:22;16.88;;;7.88;;
41480;SDS011;27217;51.220;5.308;2023-08-20T00:27:48;22.92;;;8.00;;
41480;SDS011;27217;51.220;5.308;2023-08-20T00:30:14;20.20;;;7.80;;
41480;SDS011;27217;51.220;5.308;2023-08-20T00:32:40;16.45;;;7.20;;
41480;SDS011;27217;51.220;5.308;2023-08-20T00:35:06;15.23;;;7.43;;
41480;SDS011;27217;51.220;5.308;2023-08-20T00:37:32;19.50;;;8.35;;
41480;SDS011;27217;51.220;5.308;2023-08-20T00:39:58;18.85;;;7.75;;
41480;SDS011;27217;51.220;5.308;2023-08-20T00:42:29;12.93;;;6.82;;
41480;SDS011;27217;51.220;5.308;2023-08-20T00:44:55;13.60;;;6.88;;
41480;SDS011;27217;51.220;5.308;2023-08-20T00:47:21;15.85;;;7.05;;
41480;SDS011;27217;51.220;5.308;2023-08-20T00:49:47;18.40;;;7.25;;
41480;SDS011;27217;51.220;5.308;2023-08-20T00:52:15;21.02;;;6.68;;
41480;SDS011;27217;51.220;5.308;2023-08-20T00:54:44;11.32;;;6.13;;
41480;SDS011;27217;51.220;5.308;2023-08-20T00:57:11;10.82;;;5.85;;
41480;SDS011;27217;51.220;5.308;2023-08-20T00:59:39;11.73;;;6.63;;
41480;SDS011;27217;51.220;5.308;2023-08-20T01:02:07;13.65;;;6.15;;
41480;SDS011;27217;51.220;5.308;2023-08-20T01:04:33;11.35;;;5.68;;
41480;SDS011;27217;51.220;5.308;2023-08-20T01:12:14;11.65;;;5.05;;
41480;SDS011;27217;51.220;5.308;2023-08-20T01:14:42;13.80;;;6.05;;
41480;SDS011;27217;51.220;5.308;2023-08-20T01:17:11;11.18;;;6.15;;
41480;SDS011;27217;51.220;5.308;2023-08-20T01:19:36;12.60;;;5.43;;
41480;SDS011;27217;51.220;5.308;2023-08-20T01:28:14;14.32;;;5.68;;
41480;SDS011;27217;51.220;5.308;2023-08-20T01:30:46;12.88;;;5.60;;
41480;SDS011;27217;51.220;5.308;2023-08-20T01:33:13;18.77;;;5.85;;
41480;SDS011;27217;51.220;5.308;2023-08-20T01:35:40;17.45;;;5.32;;
41480;SDS011;27217;51.220;5.308;2023-08-20T01:38:06;16.13;;;5.70;;
41480;SDS011;27217;51.220;5.308;2023-08-20T01:40:32;11.55;;;4.57;;
41480;SDS011;27217;51.220;5.308;2023-08-20T01:42:59;11.45;;;5.65;;
41480;SDS011;27217;51.220;5.308;2023-08-20T01:45:25;12.38;;;4.22;;
41480;SDS011;27217;51.220;5.308;2023-08-20T01:47:51;12.48;;;4.40;;
41480;SDS011;27217;51.220;5.308;2023-08-20T01:50:17;12.35;;;5.38;;
41480;SDS011;27217;51.220;5.308;2023-08-20T01:52:43;15.23;;;4.80;;
41480;SDS011;27217;51.220;5.308;2023-08-20T01:55:11;15.07;;;5.20;;
41480;SDS011;27217;51.220;5.308;2023-08-20T01:57:38;15.20;;;6.18;;
41480;SDS011;27217;51.220;5.308;2023-08-20T02:00:04;8.15;;;4.72;;
41480;SDS011;27217;51.220;5.308;2023-08-20T02:02:31;12.80;;;5.38;;
41480;SDS011;27217;51.220;5.308;2023-08-20T02:04:57;15.00;;;4.65;;
41480;SDS011;27217;51.220;5.308;2023-08-20T02:07:23;12.80;;;4.78;;
41480;SDS011;27217;51.220;5.308;2023-08-20T02:09:49;9.10;;;3.90;;
41480;SDS011;27217;51.220;5.308;2023-08-20T02:12:15;18.98;;;5.20;;
41480;SDS011;27217;51.220;5.308;2023-08-20T02:14:41;12.43;;;4.53;;
41480;SDS011;27217;51.220;5.308;2023-08-20T02:17:07;14.27;;;4.22;;
41480;SDS011;27217;51.220;5.308;2023-08-20T02:19:33;9.02;;;4.57;;
41480;SDS011;27217;51.220;5.308;2023-08-20T02:21:59;12.65;;;4.90;;
41480;SDS011;27217;51.220;5.308;2023-08-20T02:24:25;14.13;;;4.18;;
41480;SDS011;27217;51.220;5.308;2023-08-20T02:26:51;12.88;;;4.15;;
41480;SDS011;27217;51.220;5.308;2023-08-20T02:29:17;9.45;;;4.47;;
41480;SDS011;27217;51.220;5.308;2023-08-20T02:31:43;13.75;;;3.92;;
41480;SDS011;27217;51.220;5.308;2023-08-20T02:34:09;9.73;;;3.88;;
41480;SDS011;27217;51.220;5.308;2023-08-20T02:36:35;13.27;;;4.75;;
41480;SDS011;27217;51.220;5.308;2023-08-20T02:39:01;19.02;;;7.03;;
41480;SDS011;27217;51.220;5.308;2023-08-20T02:41:28;18.80;;;6.82;;
41480;SDS011;27217;51.220;5.308;2023-08-20T02:43:54;19.02;;;6.32;;
41480;SDS011;27217;51.220;5.308;2023-08-20T02:46:20;11.02;;;5.72;;
41480;SDS011;27217;51.220;5.308;2023-08-20T02:48:46;12.50;;;4.38;;
41480;SDS011;27217;51.220;5.308;2023-08-20T02:51:12;12.65;;;5.15;;
41480;SDS011;27217;51.220;5.308;2023-08-20T02:53:38;13.40;;;5.30;;
41480;SDS011;27217;51.220;5.308;2023-08-20T02:56:04;13.10;;;4.32;;
41480;SDS011;27217;51.220;5.308;2023-08-20T02:58:30;11.85;;;4.20;;
41480;SDS011;27217;51.220;5.308;2023-08-20T03:00:55;11.38;;;4.68;;
41480;SDS011;27217;51.220;5.308;2023-08-20T03:03:22;12.55;;;5.32;;
41480;SDS011;27217;51.220;5.308;2023-08-20T03:05:48;8.20;;;5.03;;
41480;SDS011;27217;51.220;5.308;2023-08-20T03:08:14;13.77;;;5.38;;
41480;SDS011;27217;51.220;5.308;2023-08-20T03:10:40;16.75;;;5.50;;
41480;SDS011;27217;51.220;5.308;2023-08-20T03:13:06;13.68;;;4.90;;
41480;SDS011;27217;51.220;5.308;2023-08-20T03:15:32;16.13;;;4.22;;
41480;SDS011;27217;51.220;5.308;2023-08-20T03:17:57;9.02;;;4.13;;
41480;SDS011;27217;51.220;5.308;2023-08-20T03:20:24;10.68;;;4.47;;
41480;SDS011;27217;51.220;5.308;2023-08-20T03:22:51;10.30;;;3.83;;
41480;SDS011;27217;51.220;5.308;2023-08-20T03:25:19;16.67;;;4.70;;
41480;SDS011;27217;51.220;5.308;2023-08-20T03:27:46;14.30;;;4.65;;
41480;SDS011;27217;51.220;5.308;2023-08-20T03:30:12;22.58;;;5.15;;
41480;SDS011;27217;51.220;5.308;2023-08-20T03:32:39;11.35;;;4.18;;
41480;SDS011;27217;51.220;5.308;2023-08-20T03:35:06;9.93;;;4.75;;
41480;SDS011;27217;51.220;5.308;2023-08-20T03:37:31;15.52;;;4.50;;
41480;SDS011;27217;51.220;5.308;2023-08-20T03:39:57;9.32;;;3.97;;
41480;SDS011;27217;51.220;5.308;2023-08-20T03:42:23;12.90;;;4.65;;
41480;SDS011;27217;51.220;5.308;2023-08-20T03:44:49;14.02;;;4.60;;
41480;SDS011;27217;51.220;5.308;2023-08-20T03:47:15;10.95;;;4.28;;
41480;SDS011;27217;51.220;5.308;2023-08-20T03:49:45;10.10;;;4.03;;
41480;SDS011;27217;51.220;5.308;2023-08-20T03:52:11;11.23;;;3.80;;
41480;SDS011;27217;51.220;5.308;2023-08-20T03:54:37;11.13;;;4.00;;
41480;SDS011;27217;51.220;5.308;2023-08-20T03:57:03;13.63;;;4.22;;
41480;SDS011;27217;51.220;5.308;2023-08-20T03:59:29;11.10;;;4.55;;
41480;SDS011;27217;51.220;5.308;2023-08-20T04:01:56;11.10;;;3.30;;
41480;SDS011;27217;51.220;5.308;2023-08-20T04:04:21;19.00;;;4.15;;
41480;SDS011;27217;51.220;5.308;2023-08-20T04:06:48;14.00;;;3.83;;
41480;SDS011;27217;51.220;5.308;2023-08-20T04:09:15;9.48;;;3.85;;
41480;SDS011;27217;51.220;5.308;2023-08-20T04:11:41;18.25;;;5.45;;
41480;SDS011;27217;51.220;5.308;2023-08-20T04:14:07;14.07;;;4.45;;
41480;SDS011;27217;51.220;5.308;2023-08-20T04:16:33;15.38;;;5.00;;
41480;SDS011;27217;51.220;5.308;2023-08-20T04:18:59;13.05;;;4.43;;
41480;SDS011;27217;51.220;5.308;2023-08-20T04:21:25;14.57;;;5.05;;
41480;SDS011;27217;51.220;5.308;2023-08-20T04:23:52;18.02;;;5.75;;
41480;SDS011;27217;51.220;5.308;2023-08-20T04:26:17;13.50;;;5.25;;
41480;SDS011;27217;51.220;5.308;2023-08-20T04:28:43;12.70;;;5.00;;
41480;SDS011;27217;51.220;5.308;2023-08-20T04:31:10;10.50;;;5.45;;
41480;SDS011;27217;51.220;5.308;2023-08-20T04:33:35;13.32;;;4.57;;
41480;SDS011;27217;51.220;5.308;2023-08-20T04:36:02;15.43;;;5.20;;
41480;SDS011;27217;51.220;5.308;2023-08-20T04:38:27;17.30;;;4.68;;
41480;SDS011;27217;51.220;5.308;2023-08-20T04:40:53;11.32;;;4.82;;
41480;SDS011;27217;51.220;5.308;2023-08-20T04:43:19;11.48;;;4.38;;
41480;SDS011;27217;51.220;5.308;2023-08-20T04:45:45;16.08;;;4.43;;
41480;SDS011;27217;51.220;5.308;2023-08-20T04:48:11;9.40;;;4.70;;
41480;SDS011;27217;51.220;5.308;2023-08-20T04:50:37;8.50;;;4.53;;
41480;SDS011;27217;51.220;5.308;2023-08-20T04:53:03;13.35;;;4.63;;
41480;SDS011;27217;51.220;5.308;2023-08-20T04:55:29;11.57;;;4.50;;
41480;SDS011;27217;51.220;5.308;2023-08-20T04:57:55;13.50;;;4.47;;
41480;SDS011;27217;51.220;5.308;2023-08-20T05:00:21;10.55;;;4.22;;
41480;SDS011;27217;51.220;5.308;2023-08-20T05:02:47;12.30;;;3.80;;
41480;SDS011;27217;51.220;5.308;2023-08-20T05:05:13;9.77;;;3.90;;
41480;SDS011;27217;51.220;5.308;2023-08-20T05:07:39;13.00;;;4.00;;
41480;SDS011;27217;51.220;5.308;2023-08-20T05:10:06;14.82;;;3.42;;
41480;SDS011;27217;51.220;5.308;2023-08-20T05:12:32;13.02;;;4.45;;
41480;SDS011;27217;51.220;5.308;2023-08-20T05:14:58;8.65;;;3.65;;
41480;SDS011;27217;51.220;5.308;2023-08-20T05:17:24;15.10;;;4.28;;
41480;SDS011;27217;51.220;5.308;2023-08-20T05:19:49;12.30;;;3.75;;
41480;SDS011;27217;51.220;5.308;2023-08-20T05:22:15;14.35;;;4.25;;
41480;SDS011;27217;51.220;5.308;2023-08-20T05:24:43;8.00;;;3.00;;
41480;SDS011;27217;51.220;5.308;2023-08-20T05:27:13;9.00;;;3.10;;
41480;SDS011;27217;51.220;5.308;2023-08-20T05:29:41;8.52;;;3.10;;
41480;SDS011;27217;51.220;5.308;2023-08-20T05:32:08;11.25;;;3.58;;
41480;SDS011;27217;51.220;5.308;2023-08-20T05:34:34;8.45;;;3.17;;
41480;SDS011;27217;51.220;5.308;2023-08-20T05:37:01;10.80;;;4.00;;
41480;SDS011;27217;51.220;5.308;2023-08-20T05:39:29;8.70;;;2.90;;
41480;SDS011;27217;51.220;5.308;2023-08-20T05:41:55;12.90;;;3.65;;
41480;SDS011;27217;51.220;5.308;2023-08-20T05:44:22;7.30;;;3.28;;
41480;SDS011;27217;51.220;5.308;2023-08-20T05:46:48;7.45;;;3.35;;
41480;SDS011;27217;51.220;5.308;2023-08-20T05:49:14;7.90;;;3.53;;
41480;SDS011;27217;51.220;5.308;2023-08-20T05:51:43;10.85;;;3.17;;
41480;SDS011;27217;51.220;5.308;2023-08-20T05:54:09;9.50;;;2.92;;
41480;SDS011;27217;51.220;5.308;2023-08-20T05:56:35;11.57;;;3.63;;
41480;SDS011;27217;51.220;5.308;2023-08-20T05:59:01;10.40;;;3.75;;
41480;SDS011;27217;51.220;5.308;2023-08-20T06:01:28;14.43;;;4.13;;
41480;SDS011;27217;51.220;5.308;2023-08-20T06:03:53;13.70;;;3.83;;
41480;SDS011;27217;51.220;5.308;2023-08-20T06:06:19;16.48;;;4.18;;
41480;SDS011;27217;51.220;5.308;2023-08-20T06:08:45;21.77;;;4.30;;
41480;SDS011;27217;51.220;5.308;2023-08-20T06:11:12;13.50;;;3.40;;
41480;SDS011;27217;51.220;5.308;2023-08-20T06:13:37;13.63;;;3.63;;
41480;SDS011;27217;51.220;5.308;2023-08-20T06:16:03;19.70;;;4.00;;
41480;SDS011;27217;51.220;5.308;2023-08-20T06:18:30;13.82;;;3.63;;
41480;SDS011;27217;51.220;5.308;2023-08-20T06:20:56;18.02;;;4.07;;
41480;SDS011;27217;51.220;5.308;2023-08-20T06:23:23;10.35;;;3.33;;
41480;SDS011;27217;51.220;5.308;2023-08-20T06:25:50;12.40;;;3.28;;
41480;SDS011;27217;51.220;5.308;2023-08-20T06:28:16;11.23;;;3.35;;
41480;SDS011;27217;51.220;5.308;2023-08-20T06:30:43;15.55;;;4.00;;
41480;SDS011;27217;51.220;5.308;2023-08-20T06:33:10;10.27;;;3.38;;
41480;SDS011;27217;51.220;5.308;2023-08-20T06:35:36;10.93;;;3.05;;
41480;SDS011;27217;51.220;5.308;2023-08-20T06:38:02;18.30;;;3.40;;
41480;SDS011;27217;51.220;5.308;2023-08-20T06:40:28;12.05;;;3.60;;
41480;SDS011;27217;51.220;5.308;2023-08-20T06:42:54;14.73;;;3.95;;
41480;SDS011;27217;51.220;5.308;2023-08-20T06:45:21;11.13;;;2.63;;
41480;SDS011;27217;51.220;5.308;2023-08-20T06:47:47;8.27;;;2.85;;
41480;SDS011;27217;51.220;5.308;2023-08-20T06:50:12;11.60;;;3.00;;
41480;SDS011;27217;51.220;5.308;2023-08-20T06:52:39;15.50;;;2.20;;
41480;SDS011;27217;51.220;5.308;2023-08-20T06:55:05;7.30;;;2.15;;
41480;SDS011;27217;51.220;5.308;2023-08-20T06:57:32;8.75;;;2.63;;
41480;SDS011;27217;51.220;5.308;2023-08-20T07:00:02;10.57;;;1.90;;
41480;SDS011;27217;51.220;5.308;2023-08-20T07:02:29;12.00;;;2.03;;
41480;SDS011;27217;51.220;5.308;2023-08-20T07:04:55;9.50;;;2.30;;
41480;SDS011;27217;51.220;5.308;2023-08-20T07:07:21;9.25;;;2.08;;
41480;SDS011;27217;51.220;5.308;2023-08-20T07:09:47;8.95;;;2.20;;
41480;SDS011;27217;51.220;5.308;2023-08-20T07:12:13;6.82;;;1.75;;
41480;SDS011;27217;51.220;5.308;2023-08-20T07:14:39;11.68;;;3.08;;
41480;SDS011;27217;51.220;5.308;2023-08-20T07:17:05;8.93;;;2.05;;
41480;SDS011;27217;51.220;5.308;2023-08-20T07:19:31;8.40;;;2.22;;
41480;SDS011;27217;51.220;5.308;2023-08-20T07:21:56;7.05;;;1.75;;
41480;SDS011;27217;51.220;5.308;2023-08-20T07:24:22;6.43;;;1.73;;
41480;SDS011;27217;51.220;5.308;2023-08-20T07:26:50;13.63;;;1.92;;
41480;SDS011;27217;51.220;5.308;2023-08-20T07:29:16;6.95;;;2.03;;
41480;SDS011;27217;51.220;5.308;2023-08-20T07:31:42;9.20;;;2.28;;
41480;SDS011;27217;51.220;5.308;2023-08-20T07:34:08;10.85;;;2.30;;
41480;SDS011;27217;51.220;5.308;2023-08-20T07:36:33;7.65;;;2.17;;
41480;SDS011;27217;51.220;5.308;2023-08-20T07:38:59;9.82;;;2.10;;
41480;SDS011;27217;51.220;5.308;2023-08-20T07:41:25;9.52;;;2.42;;
41480;SDS011;27217;51.220;5.308;2023-08-20T07:43:51;8.50;;;2.28;;
41480;SDS011;27217;51.220;5.308;2023-08-20T07:46:17;5.15;;;1.73;;
41480;SDS011;27217;51.220;5.308;2023-08-20T07:48:43;5.28;;;2.10;;
41480;SDS011;27217;51.220;5.308;2023-08-20T07:51:09;8.38;;;2.58;;
41480;SDS011;27217;51.220;5.308;2023-08-20T07:53:35;8.95;;;2.10;;
41480;SDS011;27217;51.220;5.308;2023-08-20T07:56:02;8.38;;;1.75;;
41480;SDS011;27217;51.220;5.308;2023-08-20T07:58:28;8.55;;;2.30;;
41480;SDS011;27217;51.220;5.308;2023-08-20T08:00:54;8.65;;;1.92;;
41480;SDS011;27217;51.220;5.308;2023-08-20T08:03:21;6.97;;;2.08;;
41480;SDS011;27217;51.220;5.308;2023-08-20T08:05:47;10.73;;;2.45;;
41480;SDS011;27217;51.220;5.308;2023-08-20T08:08:14;7.93;;;2.00;;
41480;SDS011;27217;51.220;5.308;2023-08-20T08:10:42;4.75;;;1.88;;
41480;SDS011;27217;51.220;5.308;2023-08-20T08:13:11;4.85;;;1.73;;
41480;SDS011;27217;51.220;5.308;2023-08-20T08:15:38;7.82;;;2.17;;
41480;SDS011;27217;51.220;5.308;2023-08-20T08:18:04;12.68;;;2.78;;
41480;SDS011;27217;51.220;5.308;2023-08-20T08:20:30;6.82;;;2.50;;
41480;SDS011;27217;51.220;5.308;2023-08-20T08:22:56;9.02;;;2.20;;
41480;SDS011;27217;51.220;5.308;2023-08-20T08:25:23;8.10;;;2.53;;
41480;SDS011;27217;51.220;5.308;2023-08-20T08:27:48;8.10;;;2.40;;
41480;SDS011;27217;51.220;5.308;2023-08-20T08:30:15;10.70;;;2.92;;
41480;SDS011;27217;51.220;5.308;2023-08-20T08:32:41;7.85;;;2.42;;
41480;SDS011;27217;51.220;5.308;2023-08-20T08:35:07;7.43;;;2.40;;
41480;SDS011;27217;51.220;5.308;2023-08-20T08:37:33;6.70;;;2.65;;
41480;SDS011;27217;51.220;5.308;2023-08-20T08:39:59;5.95;;;2.55;;
41480;SDS011;27217;51.220;5.308;2023-08-20T08:42:25;11.63;;;2.97;;
41480;SDS011;27217;51.220;5.308;2023-08-20T08:44:52;10.23;;;2.88;;
41480;SDS011;27217;51.220;5.308;2023-08-20T08:47:18;11.38;;;3.03;;
41480;SDS011;27217;51.220;5.308;2023-08-20T08:49:45;11.60;;;3.85;;
41480;SDS011;27217;51.220;5.308;2023-08-20T08:52:11;20.33;;;3.42;;
41480;SDS011;27217;51.220;5.308;2023-08-20T08:54:37;9.73;;;4.07;;
41480;SDS011;27217;51.220;5.308;2023-08-20T08:57:04;12.25;;;3.55;;
41480;SDS011;27217;51.220;5.308;2023-08-20T08:59:30;14.80;;;3.20;;
41480;SDS011;27217;51.220;5.308;2023-08-20T09:01:57;16.10;;;4.43;;
41480;SDS011;27217;51.220;5.308;2023-08-20T09:04:23;14.93;;;3.80;;
41480;SDS011;27217;51.220;5.308;2023-08-20T09:09:16;7.10;;;2.30;;
41480;SDS011;27217;51.220;5.308;2023-08-20T09:11:43;8.65;;;2.50;;
41480;SDS011;27217;51.220;5.308;2023-08-20T09:14:22;8.98;;;2.85;;
41480;SDS011;27217;51.220;5.308;2023-08-20T09:19:27;9.63;;;2.35;;
41480;SDS011;27217;51.220;5.308;2023-08-20T09:21:55;6.43;;;1.87;;
41480;SDS011;27217;51.220;5.308;2023-08-20T09:24:45;6.00;;;2.00;;
41480;SDS011;27217;51.220;5.308;2023-08-20T09:27:14;9.95;;;2.65;;
41480;SDS011;27217;51.220;5.308;2023-08-20T09:29:47;11.20;;;2.20;;
41480;SDS011;27217;51.220;5.308;2023-08-20T09:34:42;10.52;;;2.95;;
41480;SDS011;27217;51.220;5.308;2023-08-20T09:37:18;10.02;;;2.60;;
41480;SDS011;27217;51.220;5.308;2023-08-20T09:39:44;9.27;;;2.70;;
41480;SDS011;27217;51.220;5.308;2023-08-20T09:42:10;5.68;;;1.73;;
41480;SDS011;27217;51.220;5.308;2023-08-20T09:44:41;7.20;;;2.92;;
41480;SDS011;27217;51.220;5.308;2023-08-20T09:47:12;4.45;;;1.92;;
41480;SDS011;27217;51.220;5.308;2023-08-20T09:52:11;10.32;;;2.60;;
41480;SDS011;27217;51.220;5.308;2023-08-20T09:57:23;5.97;;;2.28;;
41480;SDS011;27217;51.220;5.308;2023-08-20T09:59:57;8.25;;;2.08;;
41480;SDS011;27217;51.220;5.308;2023-08-20T10:02:24;5.72;;;2.00;;
41480;SDS011;27217;51.220;5.308;2023-08-20T10:04:52;3.85;;;1.52;;
41480;SDS011;27217;51.220;5.308;2023-08-20T10:07:18;4.45;;;1.50;;
41480;SDS011;27217;51.220;5.308;2023-08-20T10:09:44;5.05;;;1.65;;
41480;SDS011;27217;51.220;5.308;2023-08-20T10:12:12;4.28;;;1.67;;
41480;SDS011;27217;51.220;5.308;2023-08-20T10:14:39;5.30;;;1.60;;
41480;SDS011;27217;51.220;5.308;2023-08-20T10:17:06;6.90;;;1.40;;
41480;SDS011;27217;51.220;5.308;2023-08-20T10:19:37;3.45;;;1.48;;
41480;SDS011;27217;51.220;5.308;2023-08-20T10:22:07;5.88;;;1.70;;
41480;SDS011;27217;51.220;5.308;2023-08-20T10:24:40;4.18;;;1.20;;
41480;SDS011;27217;51.220;5.308;2023-08-20T10:27:12;3.28;;;1.30;;
41480;SDS011;27217;51.220;5.308;2023-08-20T10:29:38;12.20;;;1.90;;
41480;SDS011;27217;51.220;5.308;2023-08-20T10:32:10;2.95;;;1.08;;
41480;SDS011;27217;51.220;5.308;2023-08-20T10:34:38;7.30;;;1.27;;
41480;SDS011;27217;51.220;5.308;2023-08-20T10:37:14;4.93;;;1.80;;
41480;SDS011;27217;51.220;5.308;2023-08-20T10:39:40;4.82;;;1.63;;
41480;SDS011;27217;51.220;5.308;2023-08-20T10:45:00;4.78;;;1.25;;
41480;SDS011;27217;51.220;5.308;2023-08-20T10:47:42;2.33;;;1.40;;
41480;SDS011;27217;51.220;5.308;2023-08-20T10:50:09;4.10;;;1.58;;
41480;SDS011;27217;51.220;5.308;2023-08-20T10:52:55;4.28;;;1.23;;
41480;SDS011;27217;51.220;5.308;2023-08-20T10:55:21;7.53;;;1.95;;
41480;SDS011;27217;51.220;5.308;2023-08-20T10:57:54;4.95;;;1.40;;
41480;SDS011;27217;51.220;5.308;2023-08-20T11:00:21;10.40;;;1.48;;
41480;SDS011;27217;51.220;5.308;2023-08-20T11:02:47;3.83;;;1.35;;
41480;SDS011;27217;51.220;5.308;2023-08-20T11:05:18;4.28;;;1.23;;
41480;SDS011;27217;51.220;5.308;2023-08-20T11:07:46;3.47;;;1.42;;
41480;SDS011;27217;51.220;5.308;2023-08-20T11:10:16;3.25;;;1.40;;
41480;SDS011;27217;51.220;5.308;2023-08-20T11:12:42;3.90;;;1.08;;
41480;SDS011;27217;51.220;5.308;2023-08-20T11:15:10;5.85;;;1.45;;
41480;SDS011;27217;51.220;5.308;2023-08-20T11:17:43;2.85;;;1.38;;
41480;SDS011;27217;51.220;5.308;2023-08-20T11:20:10;4.43;;;1.50;;
41480;SDS011;27217;51.220;5.308;2023-08-20T11:22:39;5.63;;;1.30;;
41480;SDS011;27217;51.220;5.308;2023-08-20T11:25:05;5.13;;;1.52;;
41480;SDS011;27217;51.220;5.308;2023-08-20T11:27:35;4.45;;;1.52;;
41480;SDS011;27217;51.220;5.308;2023-08-20T11:30:05;3.78;;;1.60;;
41480;SDS011;27217;51.220;5.308;2023-08-20T11:32:32;7.75;;;1.20;;
41480;SDS011;27217;51.220;5.308;2023-08-20T11:34:58;11.57;;;2.10;;
41480;SDS011;27217;51.220;5.308;2023-08-20T11:37:24;3.95;;;1.10;;
41480;SDS011;27217;51.220;5.308;2023-08-20T11:39:51;8.48;;;1.35;;
41480;SDS011;27217;51.220;5.308;2023-08-20T11:42:17;5.68;;;1.25;;
41480;SDS011;27217;51.220;5.308;2023-08-20T11:44:44;4.22;;;1.00;;
41480;SDS011;27217;51.220;5.308;2023-08-20T11:47:18;3.15;;;1.23;;
41480;SDS011;27217;51.220;5.308;2023-08-20T11:49:44;5.00;;;1.38;;
41480;SDS011;27217;51.220;5.308;2023-08-20T11:52:10;3.05;;;1.15;;
41480;SDS011;27217;51.220;5.308;2023-08-20T11:54:39;7.75;;;1.45;;
41480;SDS011;27217;51.220;5.308;2023-08-20T11:57:14;3.72;;;1.30;;
41480;SDS011;27217;51.220;5.308;2023-08-20T11:59:40;5.50;;;1.05;;
41480;SDS011;27217;51.220;5.308;2023-08-20T12:02:08;3.20;;;1.35;;
41480;SDS011;27217;51.220;5.308;2023-08-20T12:04:34;6.57;;;1.40;;
41480;SDS011;27217;51.220;5.308;2023-08-20T12:09:30;3.72;;;1.25;;
41480;SDS011;27217;51.220;5.308;2023-08-20T12:11:56;4.13;;;1.13;;
41480;SDS011;27217;51.220;5.308;2023-08-20T12:14:22;6.22;;;1.50;;
41480;SDS011;27217;51.220;5.308;2023-08-20T12:16:49;3.95;;;1.40;;
41480;SDS011;27217;51.220;5.308;2023-08-20T12:19:16;4.57;;;1.05;;
41480;SDS011;27217;51.220;5.308;2023-08-20T12:21:42;6.30;;;1.00;;
41480;SDS011;27217;51.220;5.308;2023-08-20T12:24:08;6.13;;;1.35;;
41480;SDS011;27217;51.220;5.308;2023-08-20T12:26:35;3.08;;;1.05;;
41480;SDS011;27217;51.220;5.308;2023-08-20T12:29:01;3.10;;;0.90;;
41480;SDS011;27217;51.220;5.308;2023-08-20T12:31:27;6.55;;;1.50;;
41480;SDS011;27217;51.220;5.308;2023-08-20T12:33:53;2.70;;;0.90;;
41480;SDS011;27217;51.220;5.308;2023-08-20T12:36:19;3.35;;;1.15;;
41480;SDS011;27217;51.220;5.308;2023-08-20T12:38:44;4.40;;;1.40;;
41480;SDS011;27217;51.220;5.308;2023-08-20T12:41:10;3.45;;;1.02;;
41480;SDS011;27217;51.220;5.308;2023-08-20T12:43:36;3.15;;;1.15;;
41480;SDS011;27217;51.220;5.308;2023-08-20T12:46:02;2.67;;;0.98;;
41480;SDS011;27217;51.220;5.308;2023-08-20T12:48:28;1.95;;;0.70;;
41480;SDS011;27217;51.220;5.308;2023-08-20T12:50:55;3.88;;;1.40;;
41480;SDS011;27217;51.220;5.308;2023-08-20T12:53:21;2.88;;;1.10;;
41480;SDS011;27217;51.220;5.308;2023-08-20T12:55:47;5.63;;;1.40;;
41480;SDS011;27217;51.220;5.308;2023-08-20T12:58:14;5.55;;;1.20;;
41480;SDS011;27217;51.220;5.308;2023-08-20T13:00:40;3.15;;;1.08;;
41480;SDS011;27217;51.220;5.308;2023-08-20T13:03:06;2.30;;;1.02;;
41480;SDS011;27217;51.220;5.308;2023-08-20T13:05:33;7.72;;;1.02;;
41480;SDS011;27217;51.220;5.308;2023-08-20T13:08:00;2.30;;;1.20;;
41480;SDS011;27217;51.220;5.308;2023-08-20T13:10:27;7.88;;;1.45;;
41480;SDS011;27217;51.220;5.308;2023-08-20T13:12:54;3.95;;;1.13;;
41480;SDS011;27217;51.220;5.308;2023-08-20T13:15:27;3.13;;;0.98;;
41480;SDS011;27217;51.220;5.308;2023-08-20T13:17:53;4.30;;;1.42;;
41480;SDS011;27217;51.220;5.308;2023-08-20T13:20:19;3.22;;;1.13;;
41480;SDS011;27217;51.220;5.308;2023-08-20T13:25:16;2.95;;;0.82;;
41480;SDS011;27217;51.220;5.308;2023-08-20T13:27:42;4.22;;;1.10;;
41480;SDS011;27217;51.220;5.308;2023-08-20T13:30:09;3.47;;;0.90;;
41480;SDS011;27217;51.220;5.308;2023-08-20T13:32:35;2.72;;;1.10;;
41480;SDS011;27217;51.220;5.308;2023-08-20T13:35:02;3.97;;;1.20;;
41480;SDS011;27217;51.220;5.308;2023-08-20T13:37:30;2.75;;;0.88;;
41480;SDS011;27217;51.220;5.308;2023-08-20T13:39:57;3.28;;;1.33;;
41480;SDS011;27217;51.220;5.308;2023-08-20T13:42:23;4.50;;;1.20;;
41480;SDS011;27217;51.220;5.308;2023-08-20T13:44:49;4.07;;;0.80;;
41480;SDS011;27217;51.220;5.308;2023-08-20T13:47:14;3.55;;;1.30;;
41480;SDS011;27217;51.220;5.308;2023-08-20T13:49:41;4.60;;;1.00;;
41480;SDS011;27217;51.220;5.308;2023-08-20T13:52:07;3.33;;;1.05;;
41480;SDS011;27217;51.220;5.308;2023-08-20T13:54:34;2.85;;;1.25;;
41480;SDS011;27217;51.220;5.308;2023-08-20T13:57:01;2.85;;;0.98;;
41480;SDS011;27217;51.220;5.308;2023-08-20T13:59:28;4.45;;;1.25;;
41480;SDS011;27217;51.220;5.308;2023-08-20T14:01:54;5.05;;;1.00;;
41480;SDS011;27217;51.220;5.308;2023-08-20T14:04:19;2.38;;;1.10;;
41480;SDS011;27217;51.220;5.308;2023-08-20T14:06:45;5.00;;;0.93;;
41480;SDS011;27217;51.220;5.308;2023-08-20T14:09:11;3.17;;;1.20;;
41480;SDS011;27217;51.220;5.308;2023-08-20T14:11:37;2.67;;;1.05;;
41480;SDS011;27217;51.220;5.308;2023-08-20T14:14:02;2.53;;;0.85;;
41480;SDS011;27217;51.220;5.308;2023-08-20T14:16:29;2.42;;;1.10;;
41480;SDS011;27217;51.220;5.308;2023-08-20T14:18:54;3.85;;;1.23;;
41480;SDS011;27217;51.220;5.308;2023-08-20T14:21:20;7.10;;;0.98;;
41480;SDS011;27217;51.220;5.308;2023-08-20T14:23:46;3.67;;;1.20;;
41480;SDS011;27217;51.220;5.308;2023-08-20T14:26:13;4.75;;;0.90;;
41480;SDS011;27217;51.220;5.308;2023-08-20T14:28:38;5.32;;;1.20;;
41480;SDS011;27217;51.220;5.308;2023-08-20T14:31:05;4.78;;;1.17;;
41480;SDS011;27217;51.220;5.308;2023-08-20T14:33:31;4.70;;;1.08;;
41480;SDS011;27217;51.220;5.308;2023-08-20T14:35:57;3.92;;;0.80;;
41480;SDS011;27217;51.220;5.308;2023-08-20T14:38:23;3.20;;;0.90;;
41480;SDS011;27217;51.220;5.308;2023-08-20T14:40:48;3.58;;;1.17;;
41480;SDS011;27217;51.220;5.308;2023-08-20T14:43:15;4.53;;;1.67;;
41480;SDS011;27217;51.220;5.308;2023-08-20T14:45:41;6.82;;;1.13;;
41480;SDS011;27217;51.220;5.308;2023-08-20T14:48:06;2.00;;;1.00;;
41480;SDS011;27217;51.220;5.308;2023-08-20T14:50:32;3.95;;;1.20;;
41480;SDS011;27217;51.220;5.308;2023-08-20T14:52:59;3.15;;;1.10;;
41480;SDS011;27217;51.220;5.308;2023-08-20T14:55:25;3.38;;;1.00;;
41480;SDS011;27217;51.220;5.308;2023-08-20T14:57:51;3.25;;;1.27;;
41480;SDS011;27217;51.220;5.308;2023-08-20T15:00:16;5.75;;;1.08;;
41480;SDS011;27217;51.220;5.308;2023-08-20T15:02:43;3.90;;;1.30;;
41480;SDS011;27217;51.220;5.308;2023-08-20T15:05:09;3.50;;;1.00;;
41480;SDS011;27217;51.220;5.308;2023-08-20T15:07:35;6.88;;;1.23;;
41480;SDS011;27217;51.220;5.308;2023-08-20T15:10:05;4.05;;;0.98;;